createdAt,value
2023-01-15T00:00:34.859Z,0.8
2023-01-15T00:03:28.806Z,0.8
2023-01-15T00:06:29.662Z,0.8
2023-01-15T00:09:29.529Z,0.8
2023-01-15T00:12:33.457Z,0.8
2023-01-15T00:15:30.356Z,0.8
2023-01-15T00:18:29.202Z,0.8
2023-01-15T00:21:32.079Z,0.8
2023-01-15T00:24:30.879Z,0.8
2023-01-15T00:27:28.820Z,0.8
2023-01-15T00:30:32.703Z,0.8
2023-01-15T00:33:31.161Z,0.8
2023-01-15T00:36:28.889Z,0.8
2023-01-15T00:39:33.692Z,0.8
2023-01-15T00:42:30.566Z,0.8
2023-01-15T00:45:31.251Z,0.8
2023-01-15T00:51:28.781Z,0.8
2023-01-15T00:54:31.088Z,0.8
2023-01-15T00:57:28.696Z,0.8
2023-01-15T01:00:34.275Z,0.8
2023-01-15T01:03:28.366Z,0.8
2023-01-15T01:06:28.839Z,0.8
2023-01-15T01:09:32.295Z,0.8
2023-01-15T01:12:30.386Z,0.8
2023-01-15T01:15:31.296Z,0.8
2023-01-15T01:18:32.518Z,0.8
2023-01-15T01:21:29.849Z,0.8
2023-01-15T01:24:29.352Z,0.8
2023-01-15T01:27:30.311Z,0.8
2023-01-15T01:30:32.589Z,0.8
2023-01-15T01:33:30.378Z,0.8
2023-01-15T01:36:28.957Z,0.8
2023-01-15T01:39:31.975Z,0.8
2023-01-15T01:42:29.633Z,0.8
2023-01-15T01:45:29.520Z,0.8
2023-01-15T01:48:35.899Z,0.8
2023-01-15T01:51:28.357Z,0.8
2023-01-15T01:54:28.966Z,0.8
2023-01-15T01:57:34.036Z,0.8
2023-01-15T02:00:29.068Z,0.8
2023-01-15T02:03:28.645Z,0.8
2023-01-15T02:06:31.668Z,0.8
2023-01-15T02:09:32.642Z,0.8
2023-01-15T02:12:28.586Z,0.8
2023-01-15T02:15:31.568Z,0.8
2023-01-15T02:18:33.645Z,0.8
2023-01-15T02:21:30.313Z,0.8
2023-01-15T02:24:28.896Z,0.8
2023-01-15T02:27:31.790Z,0.8
2023-01-15T02:30:31.360Z,0.8
2023-01-15T02:33:29.221Z,0.8
2023-01-15T02:36:32.354Z,0.8
2023-01-15T02:39:30.201Z,0.8
2023-01-15T02:42:30.670Z,0.8
2023-01-15T02:45:28.817Z,0.8
2023-01-15T02:48:32.821Z,0.8
2023-01-15T02:51:28.634Z,0.8
2023-01-15T02:54:29.801Z,0.8
2023-01-15T02:57:32.591Z,0.8
2023-01-15T03:00:31.982Z,0.8
2023-01-15T03:03:28.521Z,0.8
2023-01-15T03:06:33.121Z,0.8
2023-01-15T03:09:29.500Z,0.8
2023-01-15T03:12:29.015Z,0.8
2023-01-15T03:15:32.963Z,0.8
2023-01-15T03:18:28.866Z,0.8
2023-01-15T03:21:29.627Z,0.8
2023-01-15T03:24:29.894Z,0.8
2023-01-15T03:27:34.184Z,0.8
2023-01-15T03:30:28.798Z,0.8
2023-01-15T03:33:30.332Z,0.8
2023-01-15T03:36:32.808Z,0.8
2023-01-15T03:39:30.964Z,0.8
2023-01-15T03:42:30.238Z,0.8
2023-01-15T03:45:32.651Z,0.8
2023-01-15T03:48:29.623Z,0.8
2023-01-15T03:51:30.230Z,0.8
2023-01-15T03:54:33.284Z,0.8
2023-01-15T03:57:29.820Z,0.8
2023-01-15T04:00:28.463Z,0.8
2023-01-15T04:03:28.903Z,0.8
2023-01-15T04:06:32.995Z,0.8
2023-01-15T04:09:29.783Z,0.8
2023-01-15T04:12:30.286Z,0.8
2023-01-15T04:15:32.530Z,0.8
2023-01-15T04:18:28.659Z,0.8
2023-01-15T04:21:29.768Z,0.8
2023-01-15T04:24:33.009Z,0.8
2023-01-15T04:27:28.406Z,0.8
2023-01-15T04:30:29.221Z,0.8
2023-01-15T04:33:33.016Z,0.8
2023-01-15T04:36:29.660Z,0.8
2023-01-15T04:39:29.473Z,0.8
2023-01-15T04:42:29.664Z,0.8
2023-01-15T04:45:32.951Z,0.8
2023-01-15T04:48:30.705Z,0.8
2023-01-15T04:51:28.881Z,0.8
2023-01-15T04:54:33.819Z,0.8
2023-01-15T04:57:30.417Z,0.8
2023-01-15T05:00:30.444Z,0.8
2023-01-15T05:03:32.978Z,0.8
2023-01-15T05:06:30.433Z,0.8
2023-01-15T05:09:30.293Z,0.8
2023-01-15T05:12:33.519Z,0.8
2023-01-15T05:15:30.431Z,0.8
2023-01-15T05:18:28.493Z,0.8
2023-01-15T05:21:29.717Z,0.8
2023-01-15T05:24:33.435Z,0.8
2023-01-15T05:27:29.102Z,0.8
2023-01-15T05:30:28.580Z,0.8
2023-01-15T05:33:33.556Z,0.8
2023-01-15T05:36:29.856Z,0.8
2023-01-15T05:39:30.592Z,0.8
2023-01-15T05:42:33.064Z,0.8
2023-01-15T05:45:29.360Z,0.8
2023-01-15T05:48:30.570Z,0.8
2023-01-15T05:51:33.858Z,0.8
2023-01-15T05:54:29.551Z,0.8
2023-01-15T05:57:29.040Z,0.8
2023-01-15T06:00:31.063Z,0.8
2023-01-15T06:03:39.057Z,0.8
2023-01-15T06:06:31.054Z,0.8
2023-01-15T06:09:28.916Z,0.8
2023-01-15T06:12:33.287Z,0.8
2023-01-15T06:15:29.104Z,0.8
2023-01-15T06:18:28.752Z,0.8
2023-01-15T06:21:34.441Z,0.8
2023-01-15T06:24:29.547Z,0.8
2023-01-15T06:27:28.949Z,0.8
2023-01-15T06:30:34.492Z,0.8
2023-01-15T06:33:28.560Z,0.8
2023-01-15T06:36:30.049Z,0.8
2023-01-15T06:39:29.539Z,0.8
2023-01-15T06:42:32.643Z,0.8
2023-01-15T06:45:29.711Z,0.8
2023-01-15T06:48:30.617Z,0.8
2023-01-15T06:51:35.528Z,0.8
2023-01-15T06:54:31.537Z,0.8
2023-01-15T06:57:29.249Z,0.8
2023-01-15T07:00:35.800Z,0.8
2023-01-15T07:03:28.716Z,0.8
2023-01-15T07:06:29.708Z,0.8
2023-01-15T07:09:34.392Z,0.8
2023-01-15T07:12:29.585Z,0.8
2023-01-15T07:15:30.123Z,0.8
2023-01-15T07:18:30.396Z,0.8
2023-01-15T07:21:32.902Z,0.9
2023-01-15T07:24:29.734Z,0.9
2023-01-15T07:27:29.327Z,0.9
2023-01-15T07:30:34.185Z,1.1
2023-01-15T07:33:28.990Z,1.1
2023-01-15T07:36:30.230Z,1.1
2023-01-15T07:39:33.500Z,1.3
2023-01-15T07:42:32.260Z,1.3
2023-01-15T07:45:30.179Z,1.3
2023-01-15T07:48:33.323Z,1.6
2023-01-15T07:52:31.359Z,1.6
2023-01-15T07:54:30.644Z,1.6
2023-01-15T07:57:29.362Z,1.6
2023-01-15T08:00:32.107Z,2
2023-01-15T08:03:32.601Z,2
2023-01-15T08:06:31.431Z,2
2023-01-15T08:09:32.096Z,2.4
2023-01-15T08:12:31.341Z,2.4
2023-01-15T08:15:29.857Z,2.4
2023-01-15T08:18:32.940Z,2.8
2023-01-15T08:21:29.967Z,2.8
2023-01-15T08:24:31.434Z,2.8
2023-01-15T08:27:37.722Z,3.2
2023-01-15T08:30:30.687Z,3.2
2023-01-15T08:33:28.855Z,3.2
2023-01-15T08:36:29.055Z,3.2
2023-01-15T08:39:32.046Z,3.5
2023-01-15T08:42:29.714Z,3.5
2023-01-15T08:45:31.887Z,3.5
2023-01-15T08:48:33.253Z,3.8
2023-01-15T08:51:31.046Z,3.8
2023-01-15T08:54:30.890Z,3.8
2023-01-15T08:57:33.354Z,4
2023-01-15T09:00:30.416Z,4
2023-01-15T09:03:29.595Z,4
2023-01-15T09:06:34.344Z,4
2023-01-15T09:09:30.648Z,4
2023-01-15T09:12:30.484Z,4
2023-01-15T09:15:34.512Z,4.1
2023-01-15T09:18:28.910Z,4.1
2023-01-15T09:21:30.595Z,4.1
2023-01-15T09:24:29.487Z,4.1
2023-01-15T09:27:32.650Z,4.2
2023-01-15T09:30:30.893Z,4.2
2023-01-15T09:33:28.847Z,4.2
2023-01-15T09:36:33.058Z,4.3
2023-01-15T09:39:29.925Z,4.3
2023-01-15T09:42:30.370Z,4.3
2023-01-15T09:45:32.780Z,4.3
2023-01-15T09:48:29.527Z,4.3
2023-01-15T09:51:29.818Z,4.3
2023-01-15T09:54:34.799Z,4.4
2023-01-15T09:57:30.649Z,4.4
2023-01-15T10:00:30.216Z,4.4
2023-01-15T10:03:31.536Z,4.4
2023-01-15T10:06:32.291Z,4.4
2023-01-15T10:09:28.752Z,4.4
2023-01-15T10:12:32.929Z,4.4
2023-01-15T10:15:32.724Z,4.4
2023-01-15T10:18:29.810Z,4.4
2023-01-15T10:21:30.624Z,4.4
2023-01-15T10:24:34.000Z,4.4
2023-01-15T10:27:30.014Z,4.4
2023-01-15T10:30:30.390Z,4.4
2023-01-15T10:33:35.295Z,4.3
2023-01-15T10:36:29.579Z,4.3
2023-01-15T10:39:32.383Z,4.3
2023-01-15T10:42:30.114Z,4.3
2023-01-15T10:45:32.585Z,4.3
2023-01-15T10:48:29.638Z,4.3
2023-01-15T10:51:29.592Z,4.3
2023-01-15T10:54:32.843Z,4.2
2023-01-15T10:57:30.547Z,4.2
2023-01-15T11:00:30.707Z,4.2
2023-01-15T11:03:32.851Z,4.2
2023-01-15T11:06:29.653Z,4.2
2023-01-15T11:09:30.567Z,4.2
2023-01-15T11:12:34.116Z,4.2
2023-01-15T11:15:28.955Z,4.2
2023-01-15T11:18:30.476Z,4.2
2023-01-15T11:21:30.377Z,4.2
2023-01-15T11:24:33.538Z,4.2
2023-01-15T11:27:30.780Z,4.2
2023-01-15T11:30:29.898Z,4.2
2023-01-15T11:33:33.269Z,4.3
2023-01-15T11:36:29.554Z,4.3
2023-01-15T11:39:29.992Z,4.3
2023-01-15T11:42:33.120Z,4.3
2023-01-15T11:45:29.633Z,4.3
2023-01-15T11:48:29.260Z,4.3
2023-01-15T11:51:32.422Z,4.3
2023-01-15T11:54:29.179Z,4.3
2023-01-15T11:57:31.156Z,4.3
2023-01-15T12:00:30.016Z,4.3
2023-01-15T12:03:35.445Z,4.3
2023-01-15T12:06:28.789Z,4.3
2023-01-15T12:09:29.268Z,4.3
2023-01-15T12:12:04.255Z,4.3
2023-01-15T12:15:29.959Z,4.3
2023-01-15T12:18:28.951Z,4.3
2023-01-15T12:21:32.700Z,4.4
2023-01-15T12:24:29.311Z,4.4
2023-01-15T12:27:29.135Z,4.4
2023-01-15T12:30:33.038Z,4.4
2023-01-15T12:33:29.805Z,4.4
2023-01-15T12:36:29.527Z,4.4
2023-01-15T12:39:29.155Z,4.4
2023-01-15T12:42:28.998Z,4.4
2023-01-15T12:45:29.543Z,4.4
2023-01-15T12:48:57.625Z,4.4
2023-01-15T12:51:32.511Z,4.4
2023-01-15T12:54:29.064Z,4.4
2023-01-15T12:57:28.817Z,4.4
2023-01-15T13:00:32.750Z,4.4
2023-01-15T13:03:29.467Z,4.4
2023-01-15T13:06:28.721Z,4.4
2023-01-15T13:09:32.374Z,4.3
2023-01-15T13:12:28.937Z,4.3
2023-01-15T13:15:29.239Z,4.3
2023-01-15T13:18:29.519Z,4.3
2023-01-15T13:21:32.317Z,4.3
2023-01-15T13:24:28.707Z,4.3
2023-01-15T13:27:29.222Z,4.3
2023-01-15T13:30:32.307Z,4.3
2023-01-15T13:33:28.670Z,4.3
2023-01-15T13:36:29.225Z,4.3
2023-01-15T13:39:32.392Z,4.3
2023-01-15T13:42:28.640Z,4.3
2023-01-15T13:45:29.236Z,4.3
2023-01-15T13:48:32.329Z,4.2
2023-01-15T13:51:28.615Z,4.2
2023-01-15T13:54:28.915Z,4.2
2023-01-15T13:57:29.236Z,4.2
2023-01-15T14:00:32.917Z,4.1
2023-01-15T14:03:29.379Z,4.1
2023-01-15T14:06:29.583Z,4.1
2023-01-15T14:09:32.224Z,4.1
2023-01-15T14:12:28.894Z,4.1
2023-01-15T14:15:28.875Z,4.1
2023-01-15T14:18:32.486Z,4.1
2023-01-15T14:21:29.341Z,4.1
2023-01-15T14:24:29.401Z,4.1
2023-01-15T14:27:31.992Z,4.1
2023-01-15T14:30:32.076Z,4.1
2023-01-15T14:33:29.360Z,4.1
2023-01-15T14:36:28.803Z,4.1
2023-01-15T14:39:32.481Z,4.1
2023-01-15T14:42:28.933Z,4.1
2023-01-15T14:45:29.052Z,4.1
2023-01-15T14:48:29.804Z,4.1
2023-01-15T14:51:29.234Z,4.1
2023-01-15T14:54:28.986Z,4.1
2023-01-15T14:57:32.614Z,3.9
2023-01-15T15:00:29.097Z,3.9
2023-01-15T15:03:29.501Z,3.9
2023-01-15T15:06:32.498Z,3.7
2023-01-15T15:09:28.503Z,3.7
2023-01-15T15:12:29.129Z,3.7
2023-01-15T15:15:29.506Z,3.7
2023-01-15T15:18:32.274Z,3.5
2023-01-15T15:21:29.328Z,3.5
2023-01-15T15:24:28.992Z,3.5
2023-01-15T15:27:32.936Z,3.2
2023-01-15T15:30:29.924Z,3.2
2023-01-15T15:33:28.604Z,3.2
2023-01-15T15:36:32.923Z,2.9
2023-01-15T15:39:29.663Z,2.9
2023-01-15T15:42:29.221Z,2.9
2023-01-15T15:45:32.220Z,2.6
2023-01-15T15:48:28.753Z,2.6
2023-01-15T15:51:29.242Z,2.6
2023-01-15T15:54:29.068Z,2.6
2023-01-15T15:57:32.858Z,2.2
2023-01-15T16:00:59.418Z,2.2
2023-01-15T16:03:33.809Z,2.2
2023-01-15T16:06:33.683Z,1.8
2023-01-15T16:09:29.424Z,1.8
2023-01-15T16:12:28.879Z,1.8
2023-01-15T16:15:33.185Z,1.6
2023-01-15T16:18:29.590Z,1.6
2023-01-15T16:21:28.785Z,1.6
2023-01-15T16:24:32.490Z,1.3
2023-01-15T16:27:28.917Z,1.3
2023-01-15T16:30:29.474Z,1.3
2023-01-15T16:33:28.761Z,1.3
2023-01-15T16:36:32.268Z,1.1
2023-01-15T16:39:28.867Z,1.1
2023-01-15T16:42:29.244Z,1.1
2023-01-15T16:45:33.036Z,1
2023-01-15T16:48:29.390Z,1
2023-01-15T16:51:28.514Z,1
2023-01-15T16:54:32.171Z,0.9
2023-01-15T16:57:29.445Z,0.9
2023-01-15T17:00:28.831Z,0.9
2023-01-15T17:03:32.534Z,0.8
2023-01-15T17:06:28.980Z,0.8
2023-01-15T17:09:29.039Z,0.8
2023-01-15T17:12:29.336Z,0.8
2023-01-15T17:15:32.866Z,0.8
2023-01-15T17:18:28.985Z,0.8
2023-01-15T17:21:29.324Z,0.8
2023-01-15T17:24:32.539Z,0.8
2023-01-15T17:27:28.826Z,0.8
2023-01-15T17:30:28.777Z,0.8
2023-01-15T17:33:32.678Z,0.8
2023-01-15T17:36:28.973Z,0.8
2023-01-15T17:39:29.271Z,0.8
2023-01-15T17:42:32.226Z,0.8
2023-01-15T17:45:29.537Z,0.8
2023-01-15T17:48:29.114Z,0.8
2023-01-15T17:51:29.308Z,0.8
2023-01-15T17:54:31.967Z,0.8
2023-01-15T17:57:29.378Z,0.8
2023-01-15T18:00:29.664Z,0.8
2023-01-15T18:03:33.850Z,0.8
2023-01-15T18:06:29.947Z,0.8
2023-01-15T18:09:28.755Z,0.8
2023-01-15T18:12:32.275Z,0.8
2023-01-15T18:15:28.643Z,0.8
2023-01-15T18:18:29.361Z,0.8
2023-01-15T18:21:32.150Z,0.8
2023-01-15T18:24:28.997Z,0.8
2023-01-15T18:27:29.350Z,0.8
2023-01-15T18:30:28.562Z,0.8
2023-01-15T18:33:32.652Z,0.8
2023-01-15T18:36:29.090Z,0.8
2023-01-15T18:39:28.541Z,0.8
2023-01-15T18:42:32.879Z,0.8
2023-01-15T18:45:29.456Z,0.8
2023-01-15T18:48:29.080Z,0.8
2023-01-15T18:51:32.163Z,0.8
2023-01-15T18:54:29.141Z,0.8
2023-01-15T18:57:28.925Z,0.8
2023-01-15T19:00:36.918Z,0.8
2023-01-15T19:03:28.674Z,0.8
2023-01-15T19:06:29.257Z,0.8
2023-01-15T19:09:29.687Z,0.8
2023-01-15T19:12:34.034Z,0.8
2023-01-15T19:15:28.559Z,0.8
2023-01-15T19:18:28.865Z,0.8
2023-01-15T19:21:32.672Z,0.8
2023-01-15T19:24:29.056Z,0.8
2023-01-15T19:27:29.529Z,0.8
2023-01-15T19:30:32.564Z,0.8
2023-01-15T19:33:29.249Z,0.8
2023-01-15T19:36:29.074Z,0.8
2023-01-15T19:39:32.595Z,0.8
2023-01-15T19:42:28.878Z,0.8
2023-01-15T19:45:29.541Z,0.8
2023-01-15T19:48:28.667Z,0.8
2023-01-15T19:51:32.032Z,0.8
2023-01-15T19:54:29.377Z,0.8
2023-01-15T19:57:28.478Z,0.8
2023-01-15T20:00:33.168Z,0.8
2023-01-15T20:03:29.374Z,0.8
2023-01-15T20:06:28.737Z,0.8
2023-01-15T20:09:32.292Z,0.8
2023-01-15T20:12:28.569Z,0.8
2023-01-15T20:15:29.256Z,0.8
2023-01-15T20:18:32.185Z,0.8
2023-01-15T20:21:29.384Z,0.8
2023-01-15T20:24:28.877Z,0.8
2023-01-15T20:27:28.700Z,0.8
2023-01-15T20:30:32.001Z,0.8
2023-01-15T20:33:28.923Z,0.8
2023-01-15T20:36:36.208Z,0.8
2023-01-15T20:39:32.913Z,0.8
2023-01-15T20:42:29.611Z,0.8
2023-01-15T20:45:29.562Z,0.8
2023-01-15T20:48:32.628Z,0.8
2023-01-15T20:51:28.544Z,0.8
2023-01-15T20:54:29.370Z,0.8
2023-01-15T20:57:32.337Z,0.8
2023-01-15T21:00:31.913Z,0.8
2023-01-15T21:03:28.880Z,0.8
2023-01-15T21:06:28.974Z,0.8
2023-01-15T21:09:32.688Z,0.8
2023-01-15T21:12:29.023Z,0.8
2023-01-15T21:15:28.798Z,0.8
2023-01-15T21:18:32.242Z,0.8
2023-01-15T21:21:28.694Z,0.8
2023-01-15T21:24:29.304Z,0.8
2023-01-15T21:27:31.983Z,0.8
2023-01-15T21:30:28.917Z,0.8
2023-01-15T21:33:29.356Z,0.8
2023-01-15T21:39:32.803Z,0.8
2023-01-15T21:42:29.170Z,0.8
2023-01-15T21:45:29.842Z,0.8
2023-01-15T21:48:33.372Z,0.8
2023-01-15T21:51:28.640Z,0.8
2023-01-15T21:54:28.929Z,0.8
2023-01-15T21:57:32.253Z,0.8
2023-01-15T22:00:29.433Z,0.8
2023-01-15T22:03:28.573Z,0.8
2023-01-15T22:06:32.500Z,0.8
2023-01-15T22:09:28.979Z,0.8
2023-01-15T22:12:29.431Z,0.8
2023-01-15T22:15:32.324Z,0.8
2023-01-15T22:18:28.879Z,0.8
2023-01-15T22:21:29.200Z,0.8
2023-01-15T22:24:28.533Z,0.8
2023-01-15T22:27:32.637Z,0.8
2023-01-15T22:30:42.160Z,0.8
2023-01-15T22:33:28.707Z,0.8
2023-01-15T22:36:40.351Z,0.8
2023-01-15T22:39:29.460Z,0.8
2023-01-15T22:42:29.008Z,0.8
2023-01-15T22:45:32.717Z,0.8
2023-01-15T22:48:28.954Z,0.8
2023-01-15T22:51:29.262Z,0.8
2023-01-15T22:54:33.017Z,0.8
2023-01-15T22:57:28.845Z,0.8
2023-01-15T23:00:36.871Z,0.8
2023-01-15T23:03:32.462Z,0.8
2023-01-15T23:06:29.212Z,0.8
2023-01-15T23:09:29.739Z,0.8
2023-01-15T23:12:29.373Z,0.8
2023-01-15T23:15:32.698Z,0.8
2023-01-15T23:18:29.295Z,0.8
2023-01-15T23:21:29.109Z,0.8
2023-01-15T23:24:32.937Z,0.8
2023-01-15T23:27:29.734Z,0.8
2023-01-15T23:30:30.435Z,0.8
2023-01-15T23:33:32.495Z,0.8
2023-01-15T23:36:28.873Z,0.8
2023-01-15T23:39:29.354Z,0.8
2023-01-15T23:42:32.663Z,0.8
2023-01-15T23:45:29.576Z,0.8
2023-01-15T23:48:29.014Z,0.8
2023-01-15T23:51:29.234Z,0.8
2023-01-15T23:54:33.094Z,0.8
2023-01-15T23:57:29.399Z,0.8
